Time;durP1;ratioP1;P1;durP2;ratioP2;P2;SDS_P1;SDS_P2;PMS_P1;PMS_P2;Temp;Humidity;BMP_temperature;BMP_pressure;BME280_temperature;BME280_humidity;BME280_pressure;Samples;Min_cycle;Max_cycle;Signal;HPM_P1;HPM_P2
2021/11/20 00:01:18;;;;;;;10.50;5.40;;;12.60;97.30;;;;;;4992801;28;20011;-76
2021/11/20 00:03:45;;;;;;;12.50;6.00;;;12.50;97.30;;;;;;5007622;28;20469;-76
2021/11/20 00:06:20;;;;;;;10.05;5.50;;;12.50;97.30;;;;;;4993278;28;20046;-76
2021/11/20 00:08:47;;;;;;;9.05;5.38;;;12.50;97.30;;;;;;4992513;28;20022;-76
2021/11/20 00:11:15;;;;;;;12.52;5.93;;;12.50;97.30;;;;;;4992693;28;20027;-76
2021/11/20 00:13:42;;;;;;;9.90;6.25;;;12.40;97.30;;;;;;4992441;28;20061;-76
2021/11/20 00:16:10;;;;;;;10.25;5.45;;;12.40;97.40;;;;;;4991624;28;20462;-76
2021/11/20 00:18:37;;;;;;;11.35;5.63;;;12.40;97.40;;;;;;4992291;28;20022;-78
2021/11/20 00:21:18;;;;;;;10.30;6.45;;;12.40;97.40;;;;;;5007775;28;20028;-75
2021/11/20 00:23:48;;;;;;;8.18;5.47;;;12.50;97.40;;;;;;4992489;28;20366;-75
2021/11/20 00:26:17;;;;;;;8.63;5.43;;;12.40;97.40;;;;;;4991847;28;20011;-75
2021/11/20 00:31:28;;;;;;;9.35;5.45;;;12.40;97.40;;;;;;4992853;28;20088;-75
2021/11/20 00:33:54;;;;;;;8.88;5.68;;;12.40;97.30;;;;;;4992701;28;20030;-74
2021/11/20 00:36:21;;;;;;;9.77;4.93;;;12.40;97.40;;;;;;4992394;28;20018;-75
2021/11/20 00:38:48;;;;;;;9.30;5.22;;;12.40;97.40;;;;;;4991949;28;20366;-74
2021/11/20 00:41:21;;;;;;;9.00;5.13;;;12.40;97.40;;;;;;4992602;28;20474;-74
2021/11/20 00:43:49;;;;;;;7.65;5.07;;;12.40;97.40;;;;;;4992108;28;20026;-75
2021/11/20 00:46:18;;;;;;;10.57;5.80;;;12.40;97.40;;;;;;4991641;28;20010;-75
2021/11/20 00:48:46;;;;;;;8.02;5.25;;;12.40;97.40;;;;;;4995596;28;20034;-75
2021/11/20 00:51:14;;;;;;;8.00;5.18;;;12.40;97.40;;;;;;4996312;28;20022;-75
2021/11/20 00:53:40;;;;;;;8.95;5.65;;;12.40;97.40;;;;;;4995594;28;20022;-75
2021/11/20 00:56:08;;;;;;;8.77;4.97;;;12.40;97.70;;;;;;4996348;28;20018;-75
2021/11/20 00:58:34;;;;;;;10.02;6.28;;;12.40;97.40;;;;;;4995866;28;20033;-75
2021/11/20 01:01:06;;;;;;;11.30;5.72;;;12.40;97.30;;;;;;4995489;28;20110;-76
2021/11/20 01:03:32;;;;;;;11.48;5.40;;;12.40;97.30;;;;;;4995740;28;20069;-75
2021/11/20 01:05:59;;;;;;;10.90;5.45;;;12.40;97.40;;;;;;4996236;28;20042;-75
2021/11/20 01:08:28;;;;;;;10.35;5.10;;;12.40;97.30;;;;;;4995971;28;20098;-76
2021/11/20 01:11:05;;;;;;;10.73;5.28;;;12.40;97.30;;;;;;4995315;28;20109;-76
2021/11/20 01:13:33;;;;;;;8.98;5.30;;;12.40;97.30;;;;;;4995521;28;20022;-75
2021/11/20 01:16:04;;;;;;;10.90;5.50;;;12.40;97.30;;;;;;4995876;28;20026;-76
2021/11/20 01:18:31;;;;;;;10.05;5.25;;;12.40;97.30;;;;;;4995905;28;20026;-76
2021/11/20 01:20:58;;;;;;;9.90;6.30;;;12.40;97.30;;;;;;4995836;28;20030;-76
2021/11/20 01:23:26;;;;;;;11.25;6.80;;;12.40;97.30;;;;;;4995713;28;20034;-76
2021/11/20 01:25:54;;;;;;;9.27;5.68;;;12.40;97.30;;;;;;4995504;28;20276;-76
2021/11/20 01:28:22;;;;;;;10.88;6.40;;;12.40;97.30;;;;;;4995575;28;20122;-76
2021/11/20 01:30:48;;;;;;;12.68;7.40;;;12.30;97.30;;;;;;4993885;28;20026;-76
2021/11/20 01:33:14;;;;;;;15.25;6.78;;;12.40;97.30;;;;;;4995481;28;20497;-76
2021/11/20 01:35:40;;;;;;;10.43;6.10;;;12.30;97.30;;;;;;4995165;28;20030;-75
2021/11/20 01:38:06;;;;;;;10.02;5.70;;;12.30;97.30;;;;;;4995502;28;20049;-76
2021/11/20 01:40:35;;;;;;;10.50;6.20;;;12.30;97.30;;;;;;4994236;28;20046;-76
2021/11/20 01:43:02;;;;;;;10.98;6.90;;;12.30;97.30;;;;;;4995484;28;20019;-76
2021/11/20 01:45:36;;;;;;;11.35;6.95;;;12.30;97.30;;;;;;4995605;28;20025;-76
2021/11/20 01:48:24;;;;;;;12.00;6.43;;;12.30;97.30;;;;;;4995574;28;20417;-76
2021/11/20 01:50:56;;;;;;;11.60;7.03;;;12.40;97.30;;;;;;4994528;28;20494;-76
2021/11/20 01:53:36;;;;;;;10.75;6.35;;;12.30;97.20;;;;;;4995398;28;20054;-76
2021/11/20 01:56:14;;;;;;;11.95;7.10;;;12.40;97.20;;;;;;4995267;28;20014;-76
2021/11/20 01:58:52;;;;;;;12.25;7.32;;;12.40;97.20;;;;;;4994348;28;20390;-75
2021/11/20 02:01:53;;;;;;;12.32;7.30;;;12.30;97.20;;;;;;4994838;28;20018;-75
2021/11/20 02:04:19;;;;;;;13.25;6.93;;;12.40;97.20;;;;;;4993331;28;20043;-75
2021/11/20 02:07:05;;;;;;;14.13;6.35;;;12.40;97.20;;;;;;4993254;28;20033;-75
2021/11/20 02:09:41;;;;;;;12.32;6.82;;;12.40;97.20;;;;;;4994679;28;20364;-75
2021/11/20 02:12:21;;;;;;;10.25;6.03;;;12.30;97.10;;;;;;4994910;28;20033;-75
2021/11/20 02:14:47;;;;;;;8.93;5.40;;;12.40;97.10;;;;;;4993146;28;20351;-75
2021/11/20 02:17:21;;;;;;;11.02;6.47;;;12.40;97.10;;;;;;4994770;28;20023;-75
2021/11/20 02:19:52;;;;;;;13.95;6.60;;;12.30;97.10;;;;;;4994367;28;20049;-75
2021/11/20 02:22:39;;;;;;;12.23;6.82;;;12.30;97.20;;;;;;4994634;28;20049;-75
2021/11/20 02:25:04;;;;;;;12.20;7.15;;;12.30;97.20;;;;;;4994753;28;20022;-75
2021/11/20 02:27:40;;;;;;;10.50;5.95;;;12.30;97.20;;;;;;4994469;28;20054;-75
2021/11/20 02:30:23;;;;;;;11.80;7.18;;;12.30;97.20;;;;;;4994480;28;20029;-77
2021/11/20 02:32:57;;;;;;;10.45;6.68;;;12.30;97.20;;;;;;4994125;28;20022;-76
2021/11/20 02:35:52;;;;;;;11.82;6.80;;;12.30;97.50;;;;;;4994378;28;20029;-75
2021/11/20 02:38:35;;;;;;;11.60;6.95;;;12.30;97.20;;;;;;4992570;28;20030;-75
2021/11/20 02:41:02;;;;;;;11.48;5.97;;;12.20;97.20;;;;;;4993549;28;20073;-75
2021/11/20 02:43:32;;;;;;;11.50;5.70;;;12.20;97.20;;;;;;4992566;28;20034;-76
2021/11/20 02:45:58;;;;;;;11.98;7.10;;;12.20;97.10;;;;;;4993891;28;20026;-75
2021/11/20 02:48:25;;;;;;;12.50;6.82;;;12.20;97.10;;;;;;4994127;28;20037;-75
2021/11/20 02:51:13;;;;;;;16.77;7.85;;;12.20;97.10;;;;;;4993959;28;20030;-75
2021/11/20 02:53:48;;;;;;;14.93;7.63;;;12.20;97.20;;;;;;4992330;28;20397;-75
2021/11/20 02:56:20;;;;;;;13.52;6.85;;;12.20;97.20;;;;;;4993800;28;20022;-75
2021/11/20 02:58:46;;;;;;;11.70;7.07;;;12.20;97.20;;;;;;4993671;28;20030;-75
2021/11/20 03:01:17;;;;;;;12.73;7.00;;;12.20;97.20;;;;;;4993979;28;20030;-75
2021/11/20 03:03:43;;;;;;;14.43;7.93;;;12.20;97.20;;;;;;4993158;28;20022;-75
2021/11/20 03:06:09;;;;;;;11.73;6.97;;;12.20;97.20;;;;;;4992232;28;20125;-75
2021/11/20 03:08:35;;;;;;;13.20;7.40;;;12.20;97.20;;;;;;4993691;28;20149;-76
2021/11/20 03:11:03;;;;;;;10.77;6.35;;;12.20;97.40;;;;;;4992815;28;20058;-76
2021/11/20 03:13:30;;;;;;;14.80;8.05;;;12.20;97.10;;;;;;4992422;28;20021;-76
2021/11/20 03:15:56;;;;;;;12.75;7.15;;;12.20;97.10;;;;;;4992043;28;20029;-75
2021/11/20 03:18:21;;;;;;;14.20;8.13;;;12.20;97.20;;;;;;4992122;28;20054;-75
2021/11/20 03:20:48;;;;;;;16.50;8.07;;;12.20;97.10;;;;;;4991668;28;20060;-76
2021/11/20 03:23:24;;;;;;;13.82;8.15;;;12.20;97.10;;;;;;4992342;28;20018;-76
2021/11/20 03:25:50;;;;;;;13.40;7.53;;;12.20;97.10;;;;;;4993259;28;20029;-75
2021/11/20 03:28:16;;;;;;;13.55;7.57;;;12.20;97.00;;;;;;4993461;28;20363;-75
2021/11/20 03:30:43;;;;;;;13.65;7.82;;;12.20;97.00;;;;;;4992717;28;20033;-75
2021/11/20 03:33:09;;;;;;;16.27;8.32;;;12.20;97.00;;;;;;4993421;28;20096;-75
2021/11/20 03:35:35;;;;;;;14.40;6.82;;;12.20;97.00;;;;;;4993450;28;20395;-76
2021/11/20 03:38:01;;;;;;;12.65;7.57;;;12.20;97.00;;;;;;4992677;28;20092;-75
2021/11/20 03:40:28;;;;;;;14.95;8.32;;;12.20;97.00;;;;;;4993392;28;20018;-75
2021/11/20 03:42:54;;;;;;;14.65;7.85;;;12.20;97.00;;;;;;4992877;28;20523;-76
2021/11/20 03:45:23;;;;;;;18.02;8.13;;;12.20;97.00;;;;;;4993273;28;20030;-75
2021/11/20 03:47:49;;;;;;;16.08;7.90;;;12.20;97.00;;;;;;4991486;28;20030;-74
2021/11/20 03:50:15;;;;;;;15.68;8.60;;;12.20;97.00;;;;;;4992057;28;20034;-74
2021/11/20 03:52:43;;;;;;;18.05;9.55;;;12.20;97.20;;;;;;4993111;28;20025;-75
2021/11/20 03:55:13;;;;;;;12.88;7.25;;;12.20;97.00;;;;;;4991910;28;20178;-74
2021/11/20 03:57:39;;;;;;;16.65;8.23;;;12.20;97.00;;;;;;4993074;28;20038;-75
2021/11/20 04:00:07;;;;;;;15.35;8.32;;;12.20;96.90;;;;;;4992368;28;20049;-75
2021/11/20 04:02:33;;;;;;;14.00;7.97;;;12.20;97.00;;;;;;4992820;28;20045;-75
2021/11/20 04:04:59;;;;;;;16.20;7.97;;;12.20;96.90;;;;;;4992393;28;20046;-75
2021/11/20 04:07:24;;;;;;;15.48;8.15;;;12.10;96.90;;;;;;4992954;28;20031;-75
2021/11/20 04:09:50;;;;;;;17.05;9.05;;;12.20;96.90;;;;;;4993056;28;20030;-75
2021/11/20 04:12:16;;;;;;;16.08;8.48;;;12.10;96.90;;;;;;4993318;28;20481;-75
2021/11/20 04:14:41;;;;;;;16.75;8.77;;;12.10;97.10;;;;;;4992660;28;20085;-75
2021/11/20 04:17:07;;;;;;;15.38;8.65;;;12.10;96.90;;;;;;4992636;28;20018;-75
2021/11/20 04:19:33;;;;;;;14.77;7.88;;;12.10;96.90;;;;;;4992651;28;20023;-75
2021/11/20 04:21:59;;;;;;;16.98;8.73;;;12.10;96.90;;;;;;4992698;28;20058;-75
2021/11/20 04:24:25;;;;;;;16.85;7.93;;;12.10;96.80;;;;;;4996734;28;20422;-75
2021/11/20 04:26:51;;;;;;;15.27;8.10;;;12.10;96.90;;;;;;4996423;28;20014;-74
2021/11/20 04:29:17;;;;;;;19.42;9.93;;;12.10;96.80;;;;;;4996623;28;20469;-75
2021/11/20 04:31:43;;;;;;;19.77;9.48;;;12.10;96.80;;;;;;4996720;28;20026;-75
2021/11/20 04:34:09;;;;;;;18.88;9.40;;;12.10;96.70;;;;;;4994552;28;20018;-74
2021/11/20 04:36:35;;;;;;;18.20;8.68;;;12.10;96.70;;;;;;4995500;28;20018;-75
2021/11/20 04:39:03;;;;;;;17.27;9.93;;;12.10;96.70;;;;;;4996073;28;20028;-74
2021/11/20 04:41:28;;;;;;;16.15;8.95;;;12.10;96.70;;;;;;4996216;28;20018;-74
2021/11/20 04:43:54;;;;;;;19.33;10.05;;;12.10;96.70;;;;;;4996120;28;20369;-74
2021/11/20 04:46:23;;;;;;;16.98;9.23;;;12.10;96.70;;;;;;4996468;28;20336;-75
2021/11/20 04:48:49;;;;;;;19.00;9.50;;;12.00;96.60;;;;;;4995867;28;20101;-74
2021/11/20 04:51:15;;;;;;;20.83;11.25;;;12.00;96.60;;;;;;4995078;28;20022;-76
2021/11/20 04:53:44;;;;;;;22.50;11.27;;;12.00;96.50;;;;;;4996358;28;20443;-76
2021/11/20 04:56:11;;;;;;;17.35;9.70;;;12.00;96.50;;;;;;4995765;28;20109;-76
2021/11/20 04:58:39;;;;;;;18.33;10.27;;;12.00;96.60;;;;;;4996232;28;20037;-76
2021/11/20 05:01:06;;;;;;;21.67;11.65;;;12.00;96.50;;;;;;4994427;28;20062;-75
2021/11/20 05:03:32;;;;;;;16.08;9.70;;;12.00;96.50;;;;;;4994864;28;20025;-75
2021/11/20 05:05:58;;;;;;;21.98;10.95;;;12.00;96.50;;;;;;4994096;28;20042;-75
2021/11/20 05:08:24;;;;;;;19.98;10.43;;;12.00;96.40;;;;;;4996138;28;20061;-75
2021/11/20 05:10:51;;;;;;;19.30;10.68;;;12.00;96.40;;;;;;4994844;28;20072;-74
2021/11/20 05:13:18;;;;;;;20.25;10.35;;;12.00;96.40;;;;;;4994039;28;20022;-74
2021/11/20 05:15:46;;;;;;;21.35;10.60;;;12.10;96.50;;;;;;4995658;28;20046;-75
2021/11/20 05:18:12;;;;;;;19.98;9.90;;;12.00;96.40;;;;;;4995322;28;20029;-75
2021/11/20 05:20:38;;;;;;;19.10;10.20;;;12.00;96.40;;;;;;4996062;28;20010;-75
2021/11/20 05:23:05;;;;;;;19.33;9.73;;;12.10;96.40;;;;;;4995082;28;20053;-75
2021/11/20 05:25:31;;;;;;;21.63;10.60;;;12.00;96.30;;;;;;4995329;28;20033;-75
2021/11/20 05:27:57;;;;;;;20.58;10.32;;;12.00;96.30;;;;;;4995196;28;20019;-75
2021/11/20 05:30:29;;;;;;;22.33;10.73;;;12.10;96.30;;;;;;4994385;28;20113;-75
2021/11/20 05:32:57;;;;;;;19.40;10.25;;;12.10;96.30;;;;;;4993529;28;20029;-75
2021/11/20 05:35:24;;;;;;;20.45;9.88;;;12.10;96.30;;;;;;4995510;28;20033;-76
2021/11/20 05:37:50;;;;;;;20.48;10.85;;;12.10;96.30;;;;;;4994007;28;20074;-75
2021/11/20 05:40:16;;;;;;;20.45;10.43;;;12.10;96.30;;;;;;4993414;28;20117;-76
2021/11/20 05:42:46;;;;;;;19.48;9.98;;;12.10;96.30;;;;;;4994518;28;20344;-76
2021/11/20 05:45:13;;;;;;;20.77;10.48;;;12.10;96.30;;;;;;4991917;28;20403;-76
2021/11/20 05:47:39;;;;;;;20.00;10.23;;;12.10;96.30;;;;;;4993417;28;20033;-75
2021/11/20 05:50:07;;;;;;;19.27;10.52;;;12.10;96.30;;;;;;4993993;28;20033;-76
2021/11/20 05:52:33;;;;;;;19.52;10.85;;;12.10;96.30;;;;;;4993363;28;20379;-76
2021/11/20 05:54:59;;;;;;;23.38;11.40;;;12.10;96.30;;;;;;4994520;28;20475;-74
2021/11/20 05:57:25;;;;;;;18.80;9.40;;;12.10;96.20;;;;;;4994837;28;20030;-75
2021/11/20 05:59:51;;;;;;;22.20;10.77;;;12.10;96.20;;;;;;4994827;28;20557;-75
2021/11/20 06:02:18;;;;;;;22.38;11.27;;;12.10;96.30;;;;;;4994810;28;20050;-75
2021/11/20 06:04:44;;;;;;;20.80;10.90;;;12.10;96.30;;;;;;4994905;28;20073;-75
2021/11/20 06:07:11;;;;;;;19.92;9.63;;;12.00;96.30;;;;;;4994295;28;20022;-76
2021/11/20 06:09:41;;;;;;;26.48;12.05;;;12.00;96.30;;;;;;4993671;28;20386;-75
2021/11/20 06:12:09;;;;;;;20.45;10.50;;;12.00;96.30;;;;;;4993114;28;20023;-74
2021/11/20 06:14:35;;;;;;;23.48;11.18;;;12.00;96.40;;;;;;4993455;28;20379;-75
2021/11/20 06:17:01;;;;;;;22.85;11.75;;;12.00;96.30;;;;;;4994536;28;20459;-75
2021/11/20 06:19:27;;;;;;;23.27;11.13;;;12.00;96.30;;;;;;4994912;28;20027;-76
2021/11/20 06:21:53;;;;;;;23.73;10.57;;;12.00;96.30;;;;;;4992949;28;20030;-75
2021/11/20 06:24:19;;;;;;;26.05;11.20;;;12.00;96.30;;;;;;4994504;28;20117;-75
2021/11/20 06:26:46;;;;;;;23.73;10.70;;;12.00;96.20;;;;;;4994527;28;20023;-75
2021/11/20 06:29:13;;;;;;;23.27;11.13;;;12.00;96.20;;;;;;4993937;28;20034;-75
2021/11/20 06:31:39;;;;;;;21.23;10.93;;;12.10;96.20;;;;;;4994442;28;20418;-75
2021/11/20 06:34:06;;;;;;;25.05;11.80;;;12.00;96.20;;;;;;4993913;28;20440;-75
2021/11/20 06:36:32;;;;;;;23.75;11.10;;;12.10;96.20;;;;;;4994216;28;20022;-75
2021/11/20 06:38:58;;;;;;;21.65;10.75;;;12.10;96.20;;;;;;4991628;28;20029;-76
2021/11/20 06:41:24;;;;;;;24.05;11.80;;;12.10;96.10;;;;;;4992267;28;20122;-76
2021/11/20 06:43:51;;;;;;;21.92;11.13;;;12.00;96.10;;;;;;4991358;28;20450;-76
2021/11/20 06:46:17;;;;;;;23.80;10.77;;;12.10;96.10;;;;;;4991331;28;20023;-76
2021/11/20 06:48:43;;;;;;;25.30;11.38;;;12.00;96.10;;;;;;4992074;28;20485;-77
2021/11/20 06:51:09;;;;;;;27.17;11.40;;;12.00;96.10;;;;;;4991266;28;20023;-76
2021/11/20 06:53:36;;;;;;;22.08;11.50;;;12.00;96.10;;;;;;4990388;28;20112;-77
2021/11/20 06:56:03;;;;;;;25.98;11.95;;;12.00;96.10;;;;;;4991874;28;20077;-75
2021/11/20 07:01:09;;;;;;;21.23;11.57;;;12.00;96.10;;;;;;4991797;28;20030;-75
2021/11/20 07:03:42;;;;;;;24.50;11.02;;;12.00;96.10;;;;;;4992088;28;20038;-76
2021/11/20 07:06:19;;;;;;;21.35;10.52;;;12.00;96.00;;;;;;4992435;28;20050;-74
2021/11/20 07:08:46;;;;;;;23.73;10.73;;;12.00;96.00;;;;;;4992921;28;20434;-74
2021/11/20 07:11:12;;;;;;;20.75;10.70;;;12.00;96.00;;;;;;4993045;28;20037;-74
2021/11/20 07:13:38;;;;;;;26.58;11.68;;;12.00;96.00;;;;;;4993358;28;20026;-73
2021/11/20 07:16:08;;;;;;;21.55;11.10;;;12.00;95.90;;;;;;4992987;28;20426;-74
2021/11/20 07:18:35;;;;;;;24.10;11.77;;;12.00;95.90;;;;;;4993163;28;20026;-74
2021/11/20 07:21:02;;;;;;;25.45;11.70;;;12.00;95.80;;;;;;4991089;28;20030;-75
2021/11/20 07:23:29;;;;;;;23.85;10.18;;;12.00;95.80;;;;;;4993159;28;20014;-74
2021/11/20 07:25:56;;;;;;;17.75;9.60;;;12.00;95.80;;;;;;4992167;28;20045;-75
2021/11/20 07:28:21;;;;;;;23.02;12.05;;;12.00;95.80;;;;;;4992912;28;20455;-75
2021/11/20 07:30:47;;;;;;;20.52;9.98;;;12.00;95.80;;;;;;4993395;28;20105;-75
2021/11/20 07:33:13;;;;;;;23.77;10.80;;;11.90;95.80;;;;;;4991295;28;20053;-74
2021/11/20 07:35:45;;;;;;;25.00;12.18;;;11.90;95.70;;;;;;4991989;28;20469;-74
2021/11/20 07:38:14;;;;;;;21.77;11.07;;;11.90;95.60;;;;;;4991628;28;20378;-74
2021/11/20 07:40:42;;;;;;;20.85;9.82;;;11.90;95.60;;;;;;4993161;28;20027;-74
2021/11/20 07:43:08;;;;;;;21.23;10.15;;;11.90;95.60;;;;;;4992730;28;20109;-75
2021/11/20 07:45:34;;;;;;;22.00;11.70;;;11.90;95.60;;;;;;4993551;28;20023;-74
2021/11/20 07:48:13;;;;;;;22.05;9.10;;;11.90;95.60;;;;;;4992663;28;20038;-74
2021/11/20 07:50:40;;;;;;;24.15;11.88;;;11.90;95.60;;;;;;4992894;28;20114;-74
2021/11/20 07:53:06;;;;;;;21.80;10.50;;;11.90;95.50;;;;;;4992458;28;20026;-74
2021/11/20 07:55:33;;;;;;;22.40;10.93;;;11.90;95.50;;;;;;4992834;28;20113;-74
2021/11/20 07:57:59;;;;;;;25.92;12.32;;;11.90;95.50;;;;;;4991664;28;20125;-74
2021/11/20 08:00:30;;;;;;;28.33;13.43;;;11.90;95.40;;;;;;4992382;28;20026;-73
2021/11/20 08:02:56;;;;;;;26.60;12.77;;;11.90;95.40;;;;;;4993199;28;20019;-73
2021/11/20 08:05:26;;;;;;;26.10;12.02;;;11.80;95.30;;;;;;4992381;28;20082;-73
2021/11/20 08:07:53;;;;;;;26.27;13.45;;;11.80;95.30;;;;;;4992740;28;20034;-74
2021/11/20 08:10:19;;;;;;;25.20;12.50;;;11.90;95.20;;;;;;4992537;28;20026;-73
2021/11/20 08:12:45;;;;;;;26.50;12.32;;;11.90;95.20;;;;;;4992840;28;20019;-74
2021/11/20 08:15:11;;;;;;;27.45;13.35;;;11.90;95.20;;;;;;4992190;28;20029;-74
2021/11/20 08:17:37;;;;;;;28.83;13.10;;;11.90;95.10;;;;;;4992990;28;20034;-74
2021/11/20 08:20:06;;;;;;;28.38;13.48;;;11.90;95.00;;;;;;4992129;28;20412;-74
2021/11/20 08:22:31;;;;;;;31.05;15.68;;;11.90;94.90;;;;;;4992912;28;20026;-74
2021/11/20 08:24:57;;;;;;;31.73;14.15;;;11.90;94.90;;;;;;4992783;28;20023;-74
2021/11/20 08:27:23;;;;;;;30.60;14.77;;;11.90;94.90;;;;;;4992269;28;20026;-73
2021/11/20 08:29:48;;;;;;;33.75;15.75;;;11.90;94.90;;;;;;4992749;28;20224;-74
2021/11/20 08:32:14;;;;;;;34.55;16.52;;;11.90;94.80;;;;;;4992279;28;20034;-74
2021/11/20 08:34:42;;;;;;;33.10;15.38;;;11.90;94.80;;;;;;4992927;28;20124;-74
2021/11/20 08:37:09;;;;;;;37.53;17.83;;;11.90;94.80;;;;;;4992540;28;20030;-75
2021/11/20 08:39:35;;;;;;;30.73;15.73;;;11.80;94.60;;;;;;4992632;28;20026;-75
2021/11/20 08:42:02;;;;;;;32.05;15.80;;;11.80;94.70;;;;;;4992379;28;20034;-75
2021/11/20 08:44:28;;;;;;;37.65;15.57;;;11.90;94.70;;;;;;4992173;28;20081;-75
2021/11/20 08:46:54;;;;;;;26.38;12.27;;;11.90;94.70;;;;;;4993001;28;20035;-76
2021/11/20 08:49:21;;;;;;;33.75;16.33;;;11.90;94.60;;;;;;4992146;28;20034;-76
2021/11/20 08:51:49;;;;;;;29.85;15.30;;;11.90;94.60;;;;;;4992766;28;20126;-73
2021/11/20 08:54:16;;;;;;;30.58;14.20;;;11.90;94.60;;;;;;4992285;28;20034;-75
2021/11/20 08:56:45;;;;;;;32.05;15.85;;;11.90;94.60;;;;;;4992178;28;20058;-75
2021/11/20 08:59:13;;;;;;;32.05;16.50;;;11.90;94.60;;;;;;4991966;28;20042;-74
2021/11/20 09:01:45;;;;;;;34.65;15.52;;;11.90;94.60;;;;;;4992120;28;20464;-74
2021/11/20 09:04:15;;;;;;;32.42;15.43;;;11.90;94.60;;;;;;4990586;28;20076;-73
2021/11/20 09:06:45;;;;;;;30.77;14.77;;;11.90;94.60;;;;;;4992524;28;20030;-74
2021/11/20 09:09:21;;;;;;;32.67;16.60;;;11.90;94.60;;;;;;4995211;28;20117;-75
2021/11/20 09:12:02;;;;;;;27.30;14.00;;;11.90;94.60;;;;;;4995930;28;20068;-75
2021/11/20 09:14:32;;;;;;;33.78;15.38;;;11.90;94.60;;;;;;4995449;28;20022;-74
2021/11/20 09:16:59;;;;;;;34.75;16.05;;;12.00;94.60;;;;;;4995989;28;20033;-74
2021/11/20 09:19:31;;;;;;;31.45;15.52;;;12.00;94.50;;;;;;4994958;28;20026;-74
2021/11/20 09:21:58;;;;;;;31.10;15.00;;;12.00;94.60;;;;;;4995702;28;20031;-74
2021/11/20 09:24:30;;;;;;;34.08;16.80;;;12.00;94.50;;;;;;4995073;28;20502;-74
2021/11/20 09:26:56;;;;;;;33.63;17.15;;;12.00;94.40;;;;;;4995915;28;20019;-73
2021/11/20 09:29:24;;;;;;;34.08;17.13;;;12.10;94.50;;;;;;4993737;28;20379;-73
2021/11/20 09:31:50;;;;;;;32.90;15.98;;;12.10;94.50;;;;;;4995436;28;20030;-74
2021/11/20 09:34:16;;;;;;;36.92;17.73;;;12.10;94.40;;;;;;4995129;28;20034;-75
2021/11/20 09:36:45;;;;;;;34.80;16.48;;;12.10;94.40;;;;;;4995490;28;20061;-75
2021/11/20 09:39:13;;;;;;;29.23;13.75;;;12.10;94.40;;;;;;4993793;28;20035;-75
2021/11/20 09:42:08;;;;;;;30.45;15.38;;;12.10;94.40;;;;;;4995288;28;20538;-74
2021/11/20 09:44:38;;;;;;;29.98;15.95;;;12.10;94.30;;;;;;4995338;28;20054;-75
2021/11/20 09:47:13;;;;;;;28.00;14.05;;;12.10;94.20;;;;;;4995383;28;20037;-74
2021/11/20 09:49:48;;;;;;;29.50;14.73;;;12.10;94.20;;;;;;4995478;28;20091;-75
2021/11/20 09:52:15;;;;;;;28.38;14.55;;;12.20;94.10;;;;;;4994682;28;20034;-75
2021/11/20 09:54:43;;;;;;;24.75;12.88;;;12.20;94.10;;;;;;4993978;28;20407;-75
2021/11/20 09:57:11;;;;;;;25.17;12.82;;;12.20;94.10;;;;;;4994538;28;20034;-75
2021/11/20 09:59:46;;;;;;;26.27;13.10;;;12.20;94.00;;;;;;4993720;28;20049;-75
2021/11/20 10:02:17;;;;;;;31.55;16.30;;;12.30;94.00;;;;;;4994465;28;20026;-75
2021/11/20 10:05:00;;;;;;;29.73;14.40;;;12.20;93.90;;;;;;4994624;28;20189;-75
2021/11/20 10:07:34;;;;;;;26.90;13.57;;;12.20;93.90;;;;;;4992886;28;20502;-75
2021/11/20 10:10:23;;;;;;;27.85;14.27;;;12.20;93.90;;;;;;4995019;28;20042;-75
2021/11/20 10:13:13;;;;;;;27.83;13.88;;;12.20;93.90;;;;;;4993506;28;20068;-75
2021/11/20 10:15:43;;;;;;;32.33;15.05;;;12.20;93.80;;;;;;4994765;28;20030;-74
2021/11/20 10:18:12;;;;;;;32.13;14.70;;;12.20;93.70;;;;;;4994536;28;20033;-74
2021/11/20 10:20:40;;;;;;;30.00;14.95;;;12.30;94.10;;;;;;4994891;28;20529;-75
2021/11/20 10:23:27;;;;;;;33.13;17.35;;;12.20;93.80;;;;;;4994465;28;20022;-75
2021/11/20 10:26:24;;;;;;;33.25;16.33;;;12.30;93.70;;;;;;4994273;28;20018;-74
2021/11/20 10:29:04;;;;;;;32.10;15.95;;;12.20;93.70;;;;;;4994441;28;20515;-75
2021/11/20 10:31:44;;;;;;;31.02;15.80;;;12.20;93.70;;;;;;4992638;28;20026;-74
2021/11/20 10:34:48;;;;;;;33.23;16.43;;;12.20;93.70;;;;;;4994385;28;20068;-74
2021/11/20 10:37:16;;;;;;;30.73;15.73;;;12.20;93.70;;;;;;4991650;28;20039;-73
2021/11/20 10:39:57;;;;;;;32.10;15.15;;;12.20;93.80;;;;;;4993834;28;20081;-74
2021/11/20 10:42:34;;;;;;;30.95;15.05;;;12.20;93.80;;;;;;4993736;28;20106;-74
2021/11/20 10:45:17;;;;;;;33.30;14.95;;;12.20;93.80;;;;;;4994092;28;20567;-74
2021/11/20 10:47:59;;;;;;;32.53;17.30;;;12.30;94.00;;;;;;4992995;28;20026;-74
2021/11/20 10:50:32;;;;;;;31.33;15.57;;;12.20;93.80;;;;;;4992361;28;20038;-73
2021/11/20 10:53:25;;;;;;;33.38;16.25;;;12.20;93.80;;;;;;4994055;28;20022;-74
2021/11/20 10:56:01;;;;;;;30.52;14.75;;;12.20;93.80;;;;;;4994246;28;20471;-74
2021/11/20 10:59:02;;;;;;;29.02;13.88;;;12.20;93.80;;;;;;4993271;28;20077;-74
2021/11/20 11:01:34;;;;;;;31.80;14.93;;;12.20;93.80;;;;;;4981631;28;20458;-75
2021/11/20 11:04:36;;;;;;;28.95;14.50;;;12.20;93.80;;;;;;4993296;28;20463;-74
2021/11/20 11:07:21;;;;;;;28.00;13.90;;;12.30;93.80;;;;;;4993766;28;20069;-74
2021/11/20 11:09:57;;;;;;;29.73;14.73;;;12.20;93.80;;;;;;4993800;28;20073;-74
2021/11/20 11:12:34;;;;;;;29.42;15.85;;;12.20;93.80;;;;;;4991917;28;20018;-75
2021/11/20 11:15:15;;;;;;;27.70;13.77;;;12.20;93.80;;;;;;4992279;28;20023;-74
2021/11/20 11:17:46;;;;;;;26.90;12.73;;;12.30;93.80;;;;;;4993472;28;20427;-74
2021/11/20 11:20:43;;;;;;;30.13;13.13;;;12.20;93.80;;;;;;4993384;28;20034;-74
2021/11/20 11:23:36;;;;;;;32.80;16.67;;;12.30;93.80;;;;;;4993168;28;20061;-74
2021/11/20 11:26:15;;;;;;;29.58;14.75;;;12.20;93.70;;;;;;4993538;28;20033;-75
2021/11/20 11:29:16;;;;;;;30.13;14.55;;;12.20;93.80;;;;;;4993419;28;20038;-75
2021/11/20 11:31:44;;;;;;;32.77;14.90;;;12.20;93.90;;;;;;4989470;28;20039;-75
2021/11/20 11:34:18;;;;;;;29.67;14.40;;;12.20;93.80;;;;;;4993375;28;20442;-75
2021/11/20 11:37:11;;;;;;;30.55;13.55;;;12.20;93.90;;;;;;4993549;28;20077;-75
2021/11/20 11:39:49;;;;;;;30.08;14.10;;;12.30;93.90;;;;;;4992533;28;20426;-75
2021/11/20 11:42:39;;;;;;;32.80;15.32;;;12.20;93.80;;;;;;4991964;28;20037;-75
2021/11/20 11:45:37;;;;;;;31.92;14.65;;;12.20;93.80;;;;;;4993326;28;20026;-75
2021/11/20 11:48:11;;;;;;;32.92;15.68;;;12.20;93.90;;;;;;4988438;28;20052;-75
2021/11/20 11:50:55;;;;;;;35.10;16.35;;;12.20;93.90;;;;;;4992693;28;20058;-75
2021/11/20 11:53:24;;;;;;;35.53;15.77;;;12.20;93.90;;;;;;4992310;28;20552;-74
2021/11/20 11:56:01;;;;;;;39.67;17.35;;;12.20;93.80;;;;;;4991716;28;20030;-74
2021/11/20 11:58:30;;;;;;;34.03;15.93;;;12.20;93.90;;;;;;4992472;28;20057;-74
2021/11/20 12:00:59;;;;;;;33.63;15.75;;;12.20;93.90;;;;;;4992882;28;20375;-74
2021/11/20 12:03:25;;;;;;;31.23;14.35;;;12.30;93.90;;;;;;4992465;28;20026;-74
2021/11/20 12:06:15;;;;;;;29.85;13.50;;;12.30;93.90;;;;;;4992328;28;20047;-74
2021/11/20 12:09:01;;;;;;;35.30;16.70;;;12.40;93.90;;;;;;4992380;28;20035;-74
2021/11/20 12:11:37;;;;;;;33.50;16.23;;;12.30;93.90;;;;;;4991036;28;20382;-74
2021/11/20 12:14:27;;;;;;;35.33;15.50;;;12.30;93.90;;;;;;4991518;28;20030;-74
2021/11/20 12:16:57;;;;;;;37.80;17.02;;;12.30;93.90;;;;;;4992707;28;20026;-73
2021/11/20 12:19:35;;;;;;;35.10;17.20;;;12.30;93.90;;;;;;4990887;28;20027;-73
2021/11/20 12:22:04;;;;;;;26.80;14.25;;;12.30;94.00;;;;;;4991454;28;20430;-74
2021/11/20 12:24:42;;;;;;;32.10;15.82;;;12.30;94.00;;;;;;4992243;28;20030;-74
2021/11/20 12:27:26;;;;;;;30.95;15.65;;;12.30;93.90;;;;;;4992685;28;20030;-73
2021/11/20 12:30:26;;;;;;;32.80;15.23;;;12.20;93.90;;;;;;4992610;28;20069;-73
2021/11/20 12:33:25;;;;;;;26.25;13.13;;;12.20;94.00;;;;;;4992346;28;20023;-74
2021/11/20 12:36:09;;;;;;;27.33;13.43;;;12.20;94.00;;;;;;4992598;28;20050;-73
2021/11/20 12:38:37;;;;;;;23.80;11.13;;;12.20;94.00;;;;;;4992207;28;20026;-74
2021/11/20 12:41:36;;;;;;;24.52;12.35;;;12.20;94.00;;;;;;4991281;28;20053;-75
2021/11/20 12:44:27;;;;;;;24.35;11.95;;;12.20;94.00;;;;;;4995782;28;20027;-74
2021/11/20 12:47:02;;;;;;;24.45;12.40;;;12.20;94.00;;;;;;4996053;28;20022;-74
2021/11/20 12:49:43;;;;;;;25.58;12.20;;;12.20;94.00;;;;;;4995803;28;20096;-74
2021/11/20 12:52:27;;;;;;;26.60;12.73;;;12.30;94.00;;;;;;4994918;28;20041;-74
2021/11/20 12:54:56;;;;;;;25.55;13.43;;;12.30;94.00;;;;;;4996414;28;20033;-75
2021/11/20 12:57:31;;;;;;;25.77;13.02;;;12.30;94.00;;;;;;4995673;28;20030;-73